Time;durP1;ratioP1;P1;durP2;ratioP2;P2;SDS_P1;SDS_P2;PMS_P1;PMS_P2;Temp;Humidity;BMP_temperature;BMP_pressure;BME280_temperature;BME280_humidity;BME280_pressure;Samples;Min_cycle;Max_cycle;Signal;HPM_P1;HPM_P2
2023/03/11 00:00:28;;;;;;;1.03;1.03;;;;;;;-0.32;100.00;94094.84;10332863;28;20224;-60
2023/03/11 00:05:31;;;;;;;0.90;0.90;;;;;;;-0.51;100.00;94094.13;10333328;28;20249;-56
2023/03/11 00:10:38;;;;;;;1.33;1.23;;;;;;;-0.64;100.00;94122.03;10333010;28;20191;-55
2023/03/11 00:15:39;;;;;;;1.70;1.60;;;;;;;-0.80;100.00;94126.09;10332780;28;20324;-55
2023/03/11 00:20:41;;;;;;;1.60;1.50;;;;;;;-0.89;100.00;94119.28;10332880;28;20723;-61
2023/03/11 00:25:43;;;;;;;1.47;1.37;;;;;;;-0.94;100.00;94131.78;10332499;28;20217;-59
2023/03/11 00:30:44;;;;;;;1.70;1.60;;;;;;;-1.04;100.00;94156.75;10332815;28;20178;-56
2023/03/11 00:35:45;;;;;;;1.77;1.67;;;;;;;-1.08;100.00;94153.69;10331919;28;20767;-60
2023/03/11 00:40:46;;;;;;;1.63;1.53;;;;;;;-1.09;100.00;94176.03;10347223;28;20228;-60
2023/03/11 00:45:46;;;;;;;2.23;1.40;;;;;;;-1.06;100.00;94179.25;10331846;28;20217;-61
2023/03/11 00:50:47;;;;;;;1.40;1.30;;;;;;;-1.10;100.00;94192.38;10331648;28;20189;-60
2023/03/11 00:55:47;;;;;;;1.47;1.37;;;;;;;-1.13;100.00;94184.16;10331743;28;20209;-61
2023/03/11 01:00:47;;;;;;;4.27;1.70;;;;;;;-1.22;100.00;94214.09;10330876;28;20221;-60
2023/03/11 01:05:48;;;;;;;1.77;1.67;;;;;;;-1.27;100.00;94242.00;10331142;28;20771;-63
2023/03/11 01:10:48;;;;;;;4.83;2.27;;;;;;;-1.35;100.00;94231.63;10330262;28;20257;-63
2023/03/11 01:15:49;;;;;;;2.90;1.70;;;;;;;-1.27;100.00;94257.41;10345447;28;20209;-64
2023/03/11 01:20:49;;;;;;;2.17;1.97;;;;;;;-1.31;100.00;94256.88;10330709;28;20213;-62
2023/03/11 01:25:49;;;;;;;2.57;2.17;;;;;;;-1.39;100.00;94261.94;10345163;28;20730;-64
2023/03/11 01:30:50;;;;;;;2.60;2.40;;;;;;;-1.42;100.00;94274.22;10330642;28;20193;-64
2023/03/11 01:35:50;;;;;;;3.00;2.67;;;;;;;-1.41;100.00;94271.53;10330309;28;20217;-64
2023/03/11 01:40:52;;;;;;;3.87;2.80;;;;;;;-1.36;100.00;94286.50;10330111;28;20296;-62
2023/03/11 01:45:52;;;;;;;2.90;2.60;;;;;;;-1.29;100.00;94282.41;10328728;28;20251;-65
2023/03/11 01:50:57;;;;;;;2.47;2.27;;;;;;;-1.38;100.00;94296.13;10328653;28;20673;-64
2023/03/11 01:55:58;;;;;;;2.70;2.50;;;;;;;-1.42;100.00;94299.91;10344844;28;20224;-64
2023/03/11 02:01:00;;;;;;;2.57;2.37;;;;;;;-1.47;100.00;94319.13;10327675;28;20221;-65
2023/03/11 02:06:03;;;;;;;2.53;2.13;;;;;;;-1.50;100.00;94326.28;10389549;23;20236;-65
2023/03/11 02:11:05;;;;;;;2.00;1.90;;;;;;;-1.49;100.00;94333.06;10409538;28;20181;-65
2023/03/11 02:16:05;;;;;;;3.40;2.40;;;;;;;-1.47;100.00;94338.84;10379921;28;20568;-63
2023/03/11 02:21:12;;;;;;;2.80;2.50;;;;;;;-1.57;100.00;94351.72;10365718;28;20221;-63
2023/03/11 02:26:20;;;;;;;2.57;2.37;;;;;;;-1.52;100.00;94362.38;10373377;28;20703;-62
2023/03/11 02:31:21;;;;;;;3.10;2.20;;;;;;;-1.62;100.00;94390.66;10353358;28;20185;-63
2023/03/11 02:36:35;;;;;;;4.33;2.30;;;;;;;-1.68;100.00;94408.38;10356893;28;20209;-63
2023/03/11 02:41:39;;;;;;;2.47;2.27;;;;;;;-1.74;100.00;94408.94;10372731;28;20213;-62
2023/03/11 02:46:41;;;;;;;2.10;1.90;;;;;;;-1.78;100.00;94434.06;10372498;28;20580;-63
2023/03/11 02:51:43;;;;;;;1.97;1.87;;;;;;;-1.77;100.00;94427.97;10372877;28;20197;-65
2023/03/11 02:56:43;;;;;;;2.10;1.83;;;;;;;-1.78;100.00;94461.47;10373439;28;20240;-63
2023/03/11 03:01:44;;;;;;;2.90;1.87;;;;;;;-1.90;100.00;94461.63;10373353;28;20217;-64
2023/03/11 03:06:44;;;;;;;2.30;2.10;;;;;;;-1.96;100.00;94487.84;10388258;28;20244;-65
2023/03/11 03:11:45;;;;;;;2.07;1.90;;;;;;;-1.87;100.00;94510.13;10371799;28;20248;-62
2023/03/11 03:16:45;;;;;;;2.20;2.00;;;;;;;-1.89;100.00;94529.94;10373004;28;20202;-65
2023/03/11 03:21:46;;;;;;;1.57;1.47;;;;;;;-1.95;100.00;94533.06;10372448;28;20224;-64
2023/03/11 03:26:47;;;;;;;1.60;1.50;;;;;;;-1.97;100.00;94556.28;10371328;28;20592;-64
2023/03/11 03:31:47;;;;;;;1.83;1.73;;;;;;;-2.15;100.00;94571.50;10371330;28;20241;-63
2023/03/11 03:36:48;;;;;;;1.97;1.80;;;;;;;-2.07;100.00;94593.94;10371138;28;20215;-63
2023/03/11 03:41:51;;;;;;;2.20;1.83;;;;;;;-2.15;100.00;94622.00;10370885;28;21110;-63
2023/03/11 03:46:51;;;;;;;2.40;2.20;;;;;;;-2.11;100.00;94648.19;10370235;28;20221;-62
2023/03/11 03:51:52;;;;;;;1.90;1.80;;;;;;;-2.16;100.00;94653.72;10370639;28;20226;-63
2023/03/11 03:57:03;;;;;;;3.17;2.70;;;;;;;-2.23;100.00;94666.25;10370234;28;20221;-62
2023/03/11 04:02:05;;;;;;;2.60;2.40;;;;;;;-2.17;100.00;94686.25;10370274;28;20664;-63
2023/03/11 04:07:06;;;;;;;3.10;2.30;;;;;;;-2.25;100.00;94704.03;10370545;28;20324;-64
2023/03/11 04:12:12;;;;;;;3.53;2.90;;;;;;;-2.26;100.00;94712.66;10385601;28;20200;-64
2023/03/11 04:17:13;;;;;;;3.00;2.70;;;;;;;-2.28;100.00;94711.16;10385752;28;20233;-63
2023/03/11 04:22:14;;;;;;;3.80;3.23;;;;;;;-2.23;100.00;94722.69;10385705;28;20189;-64
2023/03/11 04:27:14;;;;;;;3.83;3.17;;;;;;;-2.25;100.00;94727.13;10370138;28;20672;-63
2023/03/11 04:32:15;;;;;;;7.73;3.40;;;;;;;-2.29;100.00;94727.50;10385078;28;20196;-63
2023/03/11 04:37:16;;;;;;;4.07;3.43;;;;;;;-2.30;100.00;94742.06;10368475;28;20271;-63
2023/03/11 04:42:18;;;;;;;5.03;4.10;;;;;;;-2.30;100.00;94744.63;10368571;28;20671;-63
2023/03/11 04:47:19;;;;;;;5.97;4.80;;;;;;;-2.30;100.00;94772.84;10383755;28;20216;-63
2023/03/11 04:52:19;;;;;;;6.93;5.00;;;;;;;-2.30;100.00;94769.47;10384475;28;20648;-63
2023/03/11 04:57:20;;;;;;;6.37;5.10;;;;;;;-2.33;100.00;94773.09;10367698;28;20205;-63
2023/03/11 05:02:21;;;;;;;6.73;5.30;;;;;;;-2.35;100.00;94785.22;10383756;28;20189;-65
2023/03/11 05:07:27;;;;;;;6.37;4.83;;;;;;;-2.33;100.00;94788.47;10367776;28;20747;-65
2023/03/11 05:12:28;;;;;;;6.77;5.43;;;;;;;-2.37;100.00;94813.56;10382929;28;20189;-63
2023/03/11 05:17:29;;;;;;;6.80;5.17;;;;;;;-2.37;100.00;94833.28;10382782;28;20213;-63
2023/03/11 05:22:29;;;;;;;8.40;5.50;;;;;;;-2.43;100.00;94839.69;10383403;28;20200;-65
2023/03/11 05:27:30;;;;;;;7.87;6.13;;;;;;;-2.40;100.00;94859.97;10383289;28;20276;-65
2023/03/11 05:32:31;;;;;;;7.70;5.83;;;;;;;-2.49;100.00;94860.69;10382976;28;20272;-65
2023/03/11 05:37:32;;;;;;;7.53;5.70;;;;;;;-2.46;100.00;94872.47;10367726;28;20267;-66
2023/03/11 05:42:33;;;;;;;9.83;6.80;;;;;;;-2.51;100.00;94873.66;10366199;28;20236;-65
2023/03/11 05:47:35;;;;;;;11.37;7.10;;;;;;;-2.48;100.00;94882.84;10382696;28;20181;-64
2023/03/11 05:52:36;;;;;;;11.53;7.50;;;;;;;-2.52;100.00;94901.97;10382374;28;20564;-65
2023/03/11 05:57:38;;;;;;;23.23;8.80;;;;;;;-2.56;100.00;94906.53;10381750;28;20217;-63
2023/03/11 06:02:39;;;;;;;11.63;8.03;;;;;;;-2.56;100.00;94924.47;10382303;28;20876;-65
2023/03/11 06:07:40;;;;;;;10.60;7.20;;;;;;;-2.55;100.00;94931.22;10382118;28;20269;-62
2023/03/11 06:12:41;;;;;;;9.57;7.47;;;;;;;-2.49;100.00;94952.19;10381857;28;20620;-63
2023/03/11 06:17:50;;;;;;;10.53;6.37;;;;;;;-2.46;100.00;94959.66;10382632;28;20240;-63
2023/03/11 06:22:51;;;;;;;10.07;7.40;;;;;;;-2.41;100.00;94960.88;10366557;28;21056;-63
2023/03/11 06:27:55;;;;;;;11.40;7.13;;;;;;;-2.39;100.00;94981.28;10382032;28;20185;-62
2023/03/11 06:32:57;;;;;;;9.17;6.23;;;;;;;-2.49;100.00;94990.66;10381681;28;20219;-62
2023/03/11 06:37:57;;;;;;;8.93;6.93;;;;;;;-2.50;100.00;95002.63;10381567;28;20217;-62
2023/03/11 06:42:58;;;;;;;9.03;6.37;;;;;;;-2.35;100.00;95013.44;10366534;28;20287;-62
2023/03/11 06:48:00;;;;;;;9.83;6.00;;;;;;;-2.38;100.00;95016.25;10381289;28;20668;-63
2023/03/11 06:53:01;;;;;;;10.30;6.67;;;;;;;-2.35;100.00;95021.94;10381313;28;20208;-62
2023/03/11 06:58:02;;;;;;;9.23;6.70;;;;;;;-2.38;100.00;95031.63;10381316;28;20339;-63
2023/03/11 07:03:03;;;;;;;8.67;6.40;;;;;;;-2.35;100.00;95057.84;10381104;28;20225;-62
2023/03/11 07:08:04;;;;;;;10.60;7.17;;;;;;;-2.33;100.00;95063.69;10380957;28;20213;-63
2023/03/11 07:13:04;;;;;;;12.57;7.30;;;;;;;-2.34;100.00;95082.56;10386860;28;20296;-63
2023/03/11 07:18:05;;;;;;;12.03;8.30;;;;;;;-2.36;100.00;95089.59;10373044;28;20291;-63
2023/03/11 07:23:05;;;;;;;8.70;6.60;;;;;;;-2.36;100.00;95107.53;10374937;28;20970;-63
2023/03/11 07:28:06;;;;;;;12.93;9.27;;;;;;;-2.29;100.00;95120.69;10389382;28;20606;-61
2023/03/11 07:33:06;;;;;;;13.33;9.33;;;;;;;-2.39;100.00;95133.41;10390971;28;20295;-62
2023/03/11 07:38:07;;;;;;;12.67;8.87;;;;;;;-2.36;100.00;95142.59;10374189;28;20213;-61
2023/03/11 07:43:07;;;;;;;15.03;8.83;;;;;;;-2.33;100.00;95147.50;10389524;28;20201;-61
2023/03/11 07:48:08;;;;;;;13.90;9.20;;;;;;;-2.17;100.00;95163.34;10389791;28;20274;-63
2023/03/11 07:53:08;;;;;;;14.60;9.73;;;;;;;-2.14;100.00;95167.44;10406606;28;20224;-62
2023/03/11 07:58:08;;;;;;;14.67;9.57;;;;;;;-2.22;100.00;95177.47;10405606;28;20228;-62
2023/03/11 08:03:09;;;;;;;15.40;9.40;;;;;;;-2.05;100.00;95200.09;10410325;28;20232;-62
2023/03/11 08:08:09;;;;;;;13.93;9.17;;;;;;;-2.02;100.00;95207.56;10418256;22;20241;-63
2023/03/11 08:13:09;;;;;;;16.47;9.47;;;;;;;-2.07;100.00;95203.69;10372045;28;20284;-61
2023/03/11 08:18:10;;;;;;;18.10;11.03;;;;;;;-2.13;100.00;95222.94;10388103;28;20237;-65
2023/03/11 08:23:10;;;;;;;14.77;8.67;;;;;;;-2.11;100.00;95231.34;10394944;28;20188;-63
2023/03/11 08:28:11;;;;;;;12.80;8.27;;;;;;;-1.97;100.00;95241.38;10412632;28;20208;-63
2023/03/11 08:33:11;;;;;;;12.53;8.17;;;;;;;-1.97;100.00;95253.41;10412651;28;20193;-65
2023/03/11 08:38:11;;;;;;;14.67;8.97;;;;;;;-1.95;100.00;95266.13;10412250;28;20278;-64
2023/03/11 08:43:12;;;;;;;11.60;8.13;;;;;;;-1.95;100.00;95269.50;10412054;28;20192;-64
2023/03/11 08:48:13;;;;;;;10.47;7.43;;;;;;;-1.55;100.00;95284.44;10411465;28;20212;-62
2023/03/11 08:53:13;;;;;;;10.97;7.63;;;;;;;-1.79;100.00;95284.56;10411211;28;20255;-62
2023/03/11 08:58:13;;;;;;;11.17;7.00;;;;;;;-1.46;100.00;95291.44;10411302;28;20220;-64
2023/03/11 09:03:14;;;;;;;11.20;7.80;;;;;;;-1.44;100.00;95289.56;10411691;28;20326;-62
2023/03/11 09:08:14;;;;;;;9.53;6.77;;;;;;;-1.66;100.00;95302.41;10409387;28;20255;-62
2023/03/11 09:13:14;;;;;;;15.93;8.70;;;;;;;-1.74;100.00;95303.00;10410669;28;20672;-64
2023/03/11 09:18:16;;;;;;;10.93;6.97;;;;;;;-1.66;100.00;95312.69;10410637;28;20601;-65
2023/03/11 09:23:17;;;;;;;11.63;7.20;;;;;;;-1.82;100.00;95334.38;10409720;28;20215;-65
2023/03/11 09:28:17;;;;;;;10.67;7.03;;;;;;;-1.75;100.00;95357.81;10409987;28;20250;-65
2023/03/11 09:33:17;;;;;;;9.23;6.90;;;;;;;-1.45;100.00;95359.03;10409397;28;20288;-64
2023/03/11 09:38:18;;;;;;;11.30;7.77;;;;;;;-1.48;100.00;95359.28;10392916;28;20266;-64
2023/03/11 09:43:30;;;;;;;9.87;6.80;;;;;;;-1.44;100.00;95364.06;10387966;28;20276;-64
2023/03/11 09:48:43;;;;;;;11.67;7.27;;;;;;;-1.27;100.00;95367.91;10375039;28;20574;-64
2023/03/11 09:53:45;;;;;;;8.23;6.67;;;;;;;-1.16;100.00;95366.28;10420689;28;20188;-64
2023/03/11 09:59:06;;;;;;;8.83;6.30;;;;;;;-0.94;100.00;95375.72;10450550;28;20717;-62
2023/03/11 10:04:20;;;;;;;9.90;6.93;;;;;;;-0.75;100.00;95385.38;10450954;28;20201;-63
2023/03/11 10:09:30;;;;;;;8.60;6.83;;;;;;;-1.02;100.00;95380.63;10438797;28;20232;-62
2023/03/11 10:14:53;;;;;;;10.90;7.43;;;;;;;-0.95;100.00;95390.31;10391191;28;20219;-64
2023/03/11 10:20:14;;;;;;;12.07;7.87;;;;;;;-0.78;100.00;95396.72;10409479;28;20231;-65
2023/03/11 10:25:17;;;;;;;10.20;7.10;;;;;;;-0.92;100.00;95405.50;10365994;28;20272;-62
2023/03/11 10:30:46;;;;;;;11.03;7.60;;;;;;;-0.89;100.00;95399.28;10350522;28;20257;-63
2023/03/11 10:35:50;;;;;;;9.90;7.20;;;;;;;-0.78;100.00;95413.88;10342933;28;20234;-64
2023/03/11 10:40:54;;;;;;;14.40;8.40;;;;;;;-1.06;100.00;95420.34;10350347;28;20259;-63
2023/03/11 10:45:54;;;;;;;9.93;7.10;;;;;;;-0.86;100.00;95432.47;10354873;28;20280;-64
2023/03/11 10:51:05;;;;;;;11.20;8.00;;;;;;;-0.74;100.00;95433.28;10375149;28;20213;-63
2023/03/11 10:56:05;;;;;;;13.20;8.57;;;;;;;-0.88;100.00;95448.97;10373584;28;20263;-65
2023/03/11 11:01:16;;;;;;;13.03;8.37;;;;;;;-0.95;100.00;95464.03;10392918;28;20631;-63
2023/03/11 11:06:33;;;;;;;10.13;7.43;;;;;;;-0.97;100.00;95455.63;10392060;28;20227;-63
2023/03/11 11:11:38;;;;;;;10.20;6.43;;;;;;;-0.68;100.00;95450.81;10318557;28;20208;-66
2023/03/11 11:16:39;;;;;;;9.53;6.70;;;;;;;-0.65;100.00;95467.78;10334754;28;20240;-65
2023/03/11 11:21:42;;;;;;;7.60;5.67;;;;;;;-0.42;100.00;95460.84;10333535;28;20226;-65
2023/03/11 11:27:01;;;;;;;10.77;6.77;;;;;;;-0.45;100.00;95464.47;10333487;28;20244;-65
2023/03/11 11:32:16;;;;;;;10.60;6.13;;;;;;;-0.42;100.00;95463.41;10334486;28;20193;-64
2023/03/11 11:37:16;;;;;;;10.20;6.47;;;;;;;-0.01;100.00;95467.06;10333856;28;20207;-64
2023/03/11 11:42:21;;;;;;;9.30;6.07;;;;;;;0.06;100.00;95460.50;10328248;28;20216;-62
2023/03/11 11:47:29;;;;;;;8.70;5.90;;;;;;;0.02;100.00;95473.72;10309327;28;20243;-63
2023/03/11 11:52:33;;;;;;;8.60;5.97;;;;;;;-0.08;100.00;95468.47;10309693;28;20183;-63
2023/03/11 11:57:34;;;;;;;7.37;5.23;;;;;;;-0.25;100.00;95467.25;10315496;28;20206;-63
2023/03/11 12:02:53;;;;;;;6.50;5.80;;;;;;;-0.45;100.00;95477.31;10293318;28;20198;-62
2023/03/11 12:08:15;;;;;;;7.90;5.77;;;;;;;-0.23;100.00;95497.06;10318130;28;20252;-63
2023/03/11 12:13:41;;;;;;;14.07;6.40;;;;;;;-0.05;100.00;95486.25;10372919;28;20262;-62
2023/03/11 12:18:50;;;;;;;8.00;5.97;;;;;;;0.25;100.00;95483.00;10373064;28;20652;-62
2023/03/11 12:23:59;;;;;;;9.50;5.73;;;;;;;0.51;100.00;95465.41;10373214;28;20205;-64
2023/03/11 12:29:03;;;;;;;7.00;5.77;;;;;;;0.86;100.00;95460.91;10372818;28;20794;-61
2023/03/11 12:34:06;;;;;;;9.77;6.27;;;;;;;0.79;99.85;95459.75;10372401;28;20185;-65
2023/03/11 12:39:16;;;;;;;9.17;5.80;;;;;;;-0.13;98.91;95465.47;10372481;28;20251;-66
2023/03/11 12:44:16;;;;;;;11.70;5.93;;;;;;;0.03;100.00;95489.06;10404749;28;20207;-63
2023/03/11 12:49:25;;;;;;;6.47;5.23;;;;;;;0.11;100.00;95488.44;10412502;28;20226;-65
2023/03/11 12:54:31;;;;;;;7.67;6.07;;;;;;;0.44;100.00;95471.19;10413009;28;20427;-64
2023/03/11 12:59:46;;;;;;;9.97;6.23;;;;;;;0.31;99.29;95471.38;10412520;28;20239;-65
2023/03/11 13:04:57;;;;;;;8.67;6.37;;;;;;;0.16;100.00;95505.13;10412645;28;20714;-65
2023/03/11 13:10:19;;;;;;;8.03;6.20;;;;;;;-0.40;100.00;95513.81;10411208;28;20325;-65
2023/03/11 13:15:19;;;;;;;8.33;5.60;;;;;;;-0.16;100.00;95518.00;10394823;28;20689;-65
2023/03/11 13:20:37;;;;;;;10.47;5.20;;;;;;;0.31;100.00;95523.72;10404781;28;20274;-64
2023/03/11 13:25:40;;;;;;;8.50;6.07;;;;;;;1.14;97.52;95486.94;10369485;28;20200;-65
2023/03/11 13:30:52;;;;;;;7.77;4.93;;;;;;;1.22;93.12;95464.69;10368638;28;20814;-65
2023/03/11 13:36:13;;;;;;;7.70;5.03;;;;;;;1.32;92.04;95471.69;10370801;28;20185;-67
2023/03/11 13:41:26;;;;;;;8.57;5.17;;;;;;;1.66;90.82;95472.19;10369438;28;20225;-64
2023/03/11 13:46:30;;;;;;;6.73;4.90;;;;;;;2.15;90.43;95490.34;10370649;28;20193;-66
2023/03/11 13:51:35;;;;;;;7.67;5.43;;;;;;;2.40;87.89;95481.25;10370619;28;20250;-68
2023/03/11 13:56:44;;;;;;;6.60;4.70;;;;;;;2.49;85.44;95475.25;10369250;28;20201;-67
2023/03/11 14:02:02;;;;;;;6.47;4.87;;;;;;;1.20;88.52;95517.38;10370237;28;20728;-66
2023/03/11 14:07:13;;;;;;;6.77;5.50;;;;;;;1.05;90.69;95533.19;10395820;22;20240;-65
2023/03/11 14:12:14;;;;;;;8.67;5.70;;;;;;;0.15;93.70;95577.38;10408751;28;20196;-65
2023/03/11 14:17:16;;;;;;;10.90;6.40;;;;;;;-0.03;96.83;95606.19;10410520;28;20218;-65
2023/03/11 14:22:16;;;;;;;8.53;5.80;;;;;;;-0.10;97.96;95607.59;10417955;28;20269;-66
2023/03/11 14:27:17;;;;;;;6.73;5.30;;;;;;;0.07;96.43;95588.28;10433990;28;20233;-65
2023/03/11 14:32:31;;;;;;;7.57;5.97;;;;;;;0.29;94.92;95578.84;10417311;28;20193;-65
2023/03/11 14:37:34;;;;;;;6.70;4.97;;;;;;;0.06;96.11;95589.22;10417774;28;20249;-65
2023/03/11 14:42:37;;;;;;;6.80;5.03;;;;;;;-0.21;95.24;95597.31;10418088;28;20202;-65
2023/03/11 14:47:43;;;;;;;7.70;5.17;;;;;;;0.14;95.70;95612.63;10433138;28;20216;-65
2023/03/11 14:52:54;;;;;;;7.53;5.47;;;;;;;-0.06;95.79;95624.47;10416535;28;20724;-65
2023/03/11 14:57:59;;;;;;;7.63;4.77;;;;;;;0.11;96.37;95622.34;10417221;28;20231;-65
2023/03/11 15:03:06;;;;;;;6.70;4.63;;;;;;;0.13;95.53;95628.19;10416201;28;20658;-65
2023/03/11 15:08:06;;;;;;;7.90;4.87;;;;;;;-0.20;95.84;95640.13;10416968;28;20231;-64
2023/03/11 15:13:12;;;;;;;8.67;6.00;;;;;;;-0.21;96.04;95651.38;10416794;28;20200;-65
2023/03/11 15:18:25;;;;;;;12.00;5.30;;;;;;;-0.28;98.21;95668.19;10432254;28;20224;-65
2023/03/11 15:23:25;;;;;;;7.07;5.47;;;;;;;-0.56;98.47;95670.25;10416465;28;20230;-65
2023/03/11 15:28:28;;;;;;;9.53;5.80;;;;;;;-0.64;99.31;95670.84;10416385;28;20323;-65
2023/03/11 15:33:32;;;;;;;8.87;5.40;;;;;;;-0.34;99.38;95684.91;10414975;28;20203;-64
2023/03/11 15:38:32;;;;;;;10.67;6.40;;;;;;;-0.34;97.37;95673.81;10414678;28;20656;-65
2023/03/11 15:43:42;;;;;;;6.83;5.70;;;;;;;-0.51;97.68;95690.50;10415639;28;20287;-65
2023/03/11 15:48:42;;;;;;;8.43;5.70;;;;;;;-0.70;97.27;95689.28;10415343;28;20298;-65
2023/03/11 15:53:42;;;;;;;9.50;5.40;;;;;;;-0.58;99.33;95701.25;10415656;28;20282;-64
2023/03/11 15:58:43;;;;;;;6.90;5.30;;;;;;;-0.75;98.85;95712.78;10414750;28;20230;-64
2023/03/11 16:03:43;;;;;;;7.03;5.27;;;;;;;-0.74;98.12;95709.25;10415210;28;20185;-64
2023/03/11 16:08:43;;;;;;;8.20;5.43;;;;;;;-1.12;97.92;95715.44;10414271;28;20270;-64
2023/03/11 16:13:44;;;;;;;11.67;6.17;;;;;;;-1.28;99.38;95735.41;10414661;28;20189;-63
2023/03/11 16:18:44;;;;;;;7.87;5.37;;;;;;;-1.29;99.95;95739.75;10414301;28;20235;-64
2023/03/11 16:23:44;;;;;;;8.13;5.77;;;;;;;-1.09;100.00;95751.19;10414323;28;20576;-63
2023/03/11 16:28:45;;;;;;;9.13;5.77;;;;;;;-1.22;99.29;95736.75;10414484;28;20232;-64
2023/03/11 16:33:45;;;;;;;7.37;5.33;;;;;;;-1.11;100.00;95747.88;10413990;28;20196;-65
2023/03/11 16:38:48;;;;;;;13.70;5.57;;;;;;;-1.09;100.00;95748.63;10413488;28;20673;-64
2023/03/11 16:43:48;;;;;;;8.23;6.07;;;;;;;-1.34;100.00;95756.41;10413315;28;20197;-64
2023/03/11 16:48:52;;;;;;;11.37;7.07;;;;;;;-1.48;100.00;95773.59;10412829;28;20228;-64
2023/03/11 16:53:52;;;;;;;8.53;6.03;;;;;;;-1.39;100.00;95782.41;10413102;28;20201;-64
2023/03/11 16:58:52;;;;;;;10.33;6.80;;;;;;;-1.42;100.00;95790.31;10412423;28;20216;-65
2023/03/11 17:03:53;;;;;;;12.00;7.20;;;;;;;-1.38;100.00;95807.16;10412711;28;20219;-64
2023/03/11 17:08:53;;;;;;;14.07;8.33;;;;;;;-1.59;100.00;95806.91;10411975;28;20247;-65
2023/03/11 17:13:54;;;;;;;10.30;6.70;;;;;;;-1.58;100.00;95818.78;10412482;28;20323;-65
2023/03/11 17:18:54;;;;;;;14.53;8.37;;;;;;;-1.71;100.00;95823.94;10412742;28;20228;-64
2023/03/11 17:23:55;;;;;;;12.53;8.03;;;;;;;-1.97;100.00;95831.63;10412213;28;20277;-64
2023/03/11 17:28:55;;;;;;;18.00;11.23;;;;;;;-2.11;100.00;95844.56;10412243;28;20620;-64
2023/03/11 17:33:58;;;;;;;15.33;8.77;;;;;;;-2.45;100.00;95854.44;10407207;28;20653;-65
2023/03/11 17:38:58;;;;;;;29.57;16.87;;;;;;;-2.54;100.00;95858.41;10409097;28;20240;-64
2023/03/11 17:43:58;;;;;;;17.60;7.87;;;;;;;-2.73;100.00;95852.78;10409252;28;20267;-65
2023/03/11 17:48:59;;;;;;;14.10;8.27;;;;;;;-2.81;100.00;95860.94;10408645;28;20270;-66
2023/03/11 17:54:00;;;;;;;20.33;13.13;;;;;;;-2.93;100.00;95867.63;10408353;28;20209;-64
2023/03/11 17:59:00;;;;;;;14.00;8.10;;;;;;;-3.01;100.00;95867.31;10408298;28;20267;-63
2023/03/11 18:04:00;;;;;;;15.17;7.97;;;;;;;-3.00;100.00;95886.88;10408609;28;20208;-63
2023/03/11 18:09:01;;;;;;;16.33;9.37;;;;;;;-3.14;100.00;95895.41;10408132;28;20268;-65
2023/03/11 18:14:01;;;;;;;14.90;7.63;;;;;;;-3.12;100.00;95892.75;10408477;28;20195;-64
2023/03/11 18:19:01;;;;;;;13.47;8.57;;;;;;;-3.37;100.00;95899.31;10408117;28;20224;-64
2023/03/11 18:24:02;;;;;;;13.93;9.30;;;;;;;-3.41;100.00;95916.63;10408382;28;20203;-64
2023/03/11 18:29:02;;;;;;;24.53;17.13;;;;;;;-3.59;100.00;95913.41;10407910;28;20208;-64
2023/03/11 18:34:04;;;;;;;27.47;15.17;;;;;;;-3.71;100.00;95921.78;10408443;28;20189;-63
2023/03/11 18:39:04;;;;;;;39.57;18.47;;;;;;;-3.71;100.00;95926.91;10407842;28;20581;-63
2023/03/11 18:44:05;;;;;;;17.70;10.00;;;;;;;-3.90;100.00;95931.44;10407835;28;20191;-64
2023/03/11 18:49:05;;;;;;;34.03;17.57;;;;;;;-4.09;100.00;95935.03;10407875;28;20223;-63
2023/03/11 18:54:06;;;;;;;33.20;15.90;;;;;;;-4.03;100.00;95937.22;10407827;28;20656;-62
2023/03/11 18:59:07;;;;;;;48.53;23.80;;;;;;;-4.05;100.00;95939.06;10408768;28;20992;-63
2023/03/11 19:04:08;;;;;;;38.23;18.57;;;;;;;-4.15;100.00;95945.59;10417369;28;20204;-62
2023/03/11 19:09:09;;;;;;;16.83;9.67;;;;;;;-4.36;100.00;95942.50;10414094;28;20276;-65
2023/03/11 19:14:10;;;;;;;25.10;12.43;;;;;;;-4.48;100.00;95942.25;10415002;28;20201;-64
2023/03/11 19:19:10;;;;;;;19.90;12.50;;;;;;;-4.61;100.00;95951.53;10414242;28;20220;-64
2023/03/11 19:24:11;;;;;;;12.30;7.50;;;;;;;-4.68;100.00;95950.19;10414541;28;20208;-64
2023/03/11 19:29:13;;;;;;;14.40;9.03;;;;;;;-4.87;100.00;95958.00;10413936;28;20216;-64
2023/03/11 19:34:13;;;;;;;13.97;8.57;;;;;;;-4.84;100.00;95960.38;10414102;28;20212;-64
2023/03/11 19:39:13;;;;;;;28.23;14.87;;;;;;;-4.89;100.00;95962.38;10413507;28;20263;-64
2023/03/11 19:44:14;;;;;;;19.23;10.33;;;;;;;-5.06;100.00;95965.78;10413440;28;20203;-64
2023/03/11 19:49:14;;;;;;;20.03;12.80;;;;;;;-5.12;100.00;95961.81;10413679;28;20332;-63
2023/03/11 19:54:15;;;;;;;30.17;15.77;;;;;;;-5.06;100.00;95970.91;10412832;28;20195;-64
2023/03/11 19:59:15;;;;;;;26.70;14.60;;;;;;;-5.09;100.00;95976.97;10412971;28;20229;-64
2023/03/11 20:04:16;;;;;;;26.60;13.87;;;;;;;-5.19;100.00;95978.38;10412613;28;20290;-63
2023/03/11 20:09:17;;;;;;;20.77;13.43;;;;;;;-5.23;100.00;95990.47;10430292;22;20254;-62
2023/03/11 20:14:17;;;;;;;17.83;10.33;;;;;;;-5.15;100.00;95984.16;10372847;28;20205;-61
2023/03/11 20:19:17;;;;;;;41.27;18.33;;;;;;;-5.20;100.00;95986.94;10373259;28;20643;-60
2023/03/11 20:24:18;;;;;;;29.53;15.23;;;;;;;-5.34;100.00;95991.91;10374100;28;20589;-65
2023/03/11 20:29:18;;;;;;;20.23;10.80;;;;;;;-5.28;100.00;95986.47;10373234;28;20223;-62
2023/03/11 20:34:18;;;;;;;23.90;13.80;;;;;;;-5.33;100.00;95993.56;10388385;28;20223;-63
2023/03/11 20:39:19;;;;;;;14.70;9.67;;;;;;;-5.29;100.00;95997.63;10413825;28;20588;-65
2023/03/11 20:44:19;;;;;;;13.10;7.47;;;;;;;-5.29;100.00;96000.97;10413865;28;20766;-65
2023/03/11 20:49:19;;;;;;;53.87;32.63;;;;;;;-5.26;100.00;95997.47;10413546;28;20965;-64
2023/03/11 20:54:20;;;;;;;17.87;10.53;;;;;;;-5.15;100.00;95997.72;10413208;28;20548;-65
2023/03/11 20:59:20;;;;;;;15.57;9.83;;;;;;;-5.17;100.00;95999.53;10413365;28;20665;-65
2023/03/11 21:04:23;;;;;;;23.80;13.97;;;;;;;-5.15;100.00;95991.81;10413045;28;20553;-64
2023/03/11 21:09:23;;;;;;;17.07;11.37;;;;;;;-5.29;100.00;95997.63;10412666;28;20231;-65
2023/03/11 21:14:23;;;;;;;16.00;9.40;;;;;;;-5.57;100.00;95997.25;10412592;28;20204;-65
2023/03/11 21:19:24;;;;;;;14.97;7.47;;;;;;;-5.63;100.00;95992.44;10412061;28;20706;-63
2023/03/11 21:24:24;;;;;;;12.23;6.17;;;;;;;-5.71;100.00;95983.50;10412529;28;20211;-65
2023/03/11 21:29:24;;;;;;;16.23;8.83;;;;;;;-5.96;100.00;95989.81;10393600;28;20303;-64
2023/03/11 21:34:25;;;;;;;12.63;6.97;;;;;;;-5.89;100.00;95985.25;10411847;28;20206;-64
2023/03/11 21:39:25;;;;;;;8.47;4.73;;;;;;;-6.01;100.00;95986.69;10411622;28;20226;-63
2023/03/11 21:44:25;;;;;;;19.63;9.63;;;;;;;-6.12;100.00;95987.22;10411693;28;20229;-65
2023/03/11 21:49:26;;;;;;;10.57;6.33;;;;;;;-6.01;100.00;95986.69;10411301;28;20212;-63
2023/03/11 21:54:26;;;;;;;20.57;8.40;;;;;;;-6.11;100.00;95986.28;10411481;28;20224;-65
2023/03/11 21:59:28;;;;;;;19.13;7.83;;;;;;;-6.19;100.00;95989.19;10410690;28;20254;-62
2023/03/11 22:04:29;;;;;;;14.80;6.00;;;;;;;-6.17;100.00;95987.41;10410745;28;20193;-65
2023/03/11 22:09:29;;;;;;;15.40;7.47;;;;;;;-6.17;100.00;95979.78;10410351;28;20325;-63
2023/03/11 22:14:30;;;;;;;18.30;10.63;;;;;;;-6.17;100.00;95994.22;10410587;28;20630;-65
2023/03/11 22:19:30;;;;;;;13.57;6.73;;;;;;;-6.18;100.00;95997.69;10410539;28;20292;-63
2023/03/11 22:24:30;;;;;;;13.20;6.83;;;;;;;-6.21;100.00;96011.41;10410304;28;20289;-64
2023/03/11 22:29:31;;;;;;;8.83;5.30;;;;;;;-6.21;100.00;96006.28;10410434;28;20219;-61
2023/03/11 22:34:31;;;;;;;15.40;7.00;;;;;;;-6.32;100.00;96001.69;10410171;28;20206;-62
2023/03/11 22:39:32;;;;;;;9.77;6.27;;;;;;;-6.13;100.00;96011.84;10411590;28;20226;-64
2023/03/11 22:44:32;;;;;;;9.13;5.27;;;;;;;-6.17;100.00;96012.91;10418669;28;20275;-64
2023/03/11 22:49:33;;;;;;;9.90;5.23;;;;;;;-6.03;100.00;96013.97;10417991;28;20234;-64
2023/03/11 22:54:35;;;;;;;12.07;5.73;;;;;;;-5.93;100.00;96022.81;10418244;28;20190;-66
2023/03/11 22:59:36;;;;;;;13.60;5.80;;;;;;;-6.08;100.00;96019.28;10417205;28;20731;-63
2023/03/11 23:04:36;;;;;;;8.50;4.80;;;;;;;-6.22;100.00;96017.38;10416898;28;20303;-63